createdAt,value
2019-02-21T09:31:25.782Z,58.70
2019-02-21T09:32:25.640Z,62.90
2019-02-21T09:33:25.704Z,39.50
2019-02-21T09:34:25.585Z,33.00
2019-02-21T09:35:25.545Z,31.30
2019-02-21T09:36:25.615Z,30.60
2019-02-21T09:37:25.478Z,31.20
2019-02-21T09:38:25.654Z,31.70
2019-02-21T09:39:25.438Z,30.90
2019-02-21T09:41:25.372Z,27.60
2019-02-21T09:42:25.455Z,30.20
2019-02-21T09:43:25.313Z,29.90
2019-02-21T09:44:27.338Z,30.70
2019-02-21T09:45:25.263Z,30.70
2019-02-21T09:46:25.235Z,30.40
2019-02-21T09:47:25.387Z,31.90
2019-02-21T09:48:25.184Z,31.00
2019-02-21T09:49:25.315Z,32.00
2019-02-21T09:50:25.122Z,30.70
2019-02-21T09:51:25.109Z,30.70
2019-02-21T09:52:25.086Z,31.50
2019-02-21T09:53:25.224Z,31.70
2019-02-21T09:54:25.027Z,30.90
2019-02-21T09:55:25.141Z,31.50
2019-02-21T09:56:30.500Z,32.00
2019-02-21T09:57:24.945Z,31.20
2019-02-21T09:58:25.069Z,32.00
2019-02-21T09:59:24.893Z,31.80
2019-02-21T10:00:24.968Z,31.20
2019-02-21T10:01:24.853Z,31.70
2019-02-21T10:02:24.814Z,31.40
2019-02-21T10:03:24.798Z,31.30
2019-02-21T10:04:31.790Z,31.60
2019-02-21T10:05:24.766Z,31.40
2019-02-21T10:06:24.804Z,31.60
2019-02-21T10:07:24.685Z,32.00
2019-02-21T10:08:24.666Z,32.40
2019-02-21T10:09:24.827Z,31.30
2019-02-21T10:10:24.619Z,32.50
2019-02-21T10:11:24.744Z,32.60
2019-02-21T10:12:24.564Z,32.00
2019-02-21T10:13:24.652Z,32.80
2019-02-21T10:14:24.523Z,32.40
2019-02-21T10:15:24.667Z,32.80
2019-02-21T10:16:24.466Z,33.00
2019-02-21T10:17:24.575Z,32.10
2019-02-21T10:18:24.405Z,31.40
2019-02-21T10:19:24.384Z,32.10
2019-02-21T10:20:24.363Z,31.80
2019-02-21T10:21:24.509Z,31.80
2019-02-21T10:22:26.078Z,31.30
2019-02-21T10:23:24.465Z,31.40
2019-02-21T10:24:24.264Z,31.50
2019-02-21T10:25:24.424Z,31.80
2019-02-21T10:26:24.205Z,31.80
2019-02-21T10:27:24.341Z,32.30
2019-02-21T10:28:24.153Z,31.20
2019-02-21T10:29:24.156Z,31.00
2019-02-21T10:30:24.092Z,31.10
2019-02-21T10:31:24.083Z,31.00
2019-02-21T10:32:24.075Z,30.80
2019-02-21T10:33:25.306Z,30.20
2019-02-21T10:34:24.186Z,30.80
2019-02-21T10:35:24.198Z,30.40
2019-02-21T10:36:23.942Z,30.90
2019-02-21T10:37:24.103Z,31.20
2019-02-21T10:38:23.904Z,30.80
2019-02-21T10:39:24.016Z,30.70
2019-02-21T10:40:23.862Z,29.00
2019-02-21T10:41:23.823Z,28.60
2019-02-21T10:42:24.167Z,28.90
2019-02-21T10:43:23.783Z,28.80
2019-02-21T10:44:23.843Z,28.60
2019-02-21T10:45:23.731Z,28.60
2019-02-21T10:46:23.713Z,28.50
2019-02-21T10:47:23.695Z,29.30
2019-02-21T10:48:23.762Z,27.50
2019-02-21T10:49:23.612Z,28.00
2019-02-21T10:50:23.686Z,27.60
2019-02-21T10:51:23.591Z,26.60
2019-02-21T10:52:23.572Z,28.10
2019-02-21T10:54:55.702Z,27.00
2019-02-21T10:55:55.510Z,26.90
2019-02-21T10:57:59.552Z,27.50
2019-02-21T10:58:59.696Z,27.50
2019-02-21T11:01:03.742Z,26.60
2019-02-21T11:02:03.543Z,28.00
2019-02-21T11:04:07.773Z,26.60
2019-02-21T11:05:07.553Z,27.00
2019-02-21T11:07:11.763Z,27.50
2019-02-21T11:08:11.583Z,26.40
2019-02-21T11:10:04.714Z,26.20
2019-02-21T11:11:04.534Z,24.50
2019-02-21T11:13:08.750Z,23.80
2019-02-21T11:14:08.554Z,24.60
2019-02-21T11:16:12.851Z,24.10
2019-02-21T11:17:12.664Z,23.30
2019-02-21T11:19:16.984Z,23.60
2019-02-21T11:20:16.785Z,23.60
2019-02-21T11:22:21.092Z,23.50
2019-02-21T11:23:20.916Z,22.50
2019-02-21T11:25:25.049Z,22.50
2019-02-21T11:26:25.013Z,22.10
2019-02-21T11:28:29.323Z,23.20
2019-02-21T11:29:29.132Z,22.70
2019-02-21T11:31:33.441Z,21.80
2019-02-21T11:32:33.254Z,22.20
2019-02-21T11:34:38.172Z,21.80
2019-02-21T11:35:37.387Z,22.40
2019-02-21T11:37:45.632Z,22.50
2019-02-21T11:38:41.494Z,22.60
2019-02-21T11:40:34.636Z,21.20
2019-02-21T11:41:34.536Z,22.30
2019-02-21T11:43:38.641Z,22.40
2019-02-21T11:44:38.562Z,22.20
2019-02-21T11:46:42.652Z,22.00
2019-02-21T11:47:42.571Z,21.50
2019-02-21T11:49:46.672Z,21.60
2019-02-21T11:50:46.583Z,21.70
2019-02-21T11:52:50.630Z,20.30
2019-02-21T11:53:50.652Z,20.20
2019-02-21T11:55:54.715Z,20.50
2019-02-21T11:56:54.601Z,20.70
2019-02-21T11:58:58.651Z,20.30
2019-02-21T11:59:58.694Z,20.40
2019-02-21T12:02:02.734Z,19.60
2019-02-21T12:03:02.642Z,20.60
2019-02-21T12:05:16.828Z,20.50
2019-02-21T12:06:06.652Z,19.60
2019-02-21T12:08:10.741Z,20.20
2019-02-21T12:09:10.690Z,19.50
2019-02-21T12:11:14.731Z,20.10
2019-02-21T12:12:14.657Z,20.50
2019-02-21T12:14:07.792Z,20.50
2019-02-21T12:15:07.715Z,19.40
2019-02-21T12:17:11.810Z,20.30
2019-02-21T12:18:11.722Z,19.90
2019-02-21T12:20:04.600Z,20.80
2019-02-21T12:21:04.573Z,20.30
2019-02-21T12:22:04.635Z,20.80
2019-02-21T12:23:04.521Z,20.00
2019-02-21T12:24:04.542Z,20.30
2019-02-21T12:25:04.492Z,20.90
2019-02-21T12:26:04.452Z,20.00
2019-02-21T12:27:04.475Z,20.50
2019-02-21T12:28:04.423Z,20.30
2019-02-21T12:29:04.477Z,20.20
2019-02-21T12:30:04.363Z,20.60
2019-02-21T12:31:04.393Z,20.20
2019-02-21T12:32:04.313Z,20.10
2019-02-21T12:33:04.393Z,20.30
2019-02-21T12:34:04.270Z,20.30
2019-02-21T12:35:04.314Z,20.50
2019-02-21T12:36:04.223Z,20.70
2019-02-21T12:37:04.211Z,20.90
2019-02-21T12:38:04.221Z,20.40
2019-02-21T12:39:04.161Z,19.90
2019-02-21T12:40:04.232Z,19.80
2019-02-21T12:41:04.122Z,19.50
2019-02-21T12:42:04.142Z,20.40
2019-02-21T12:43:04.063Z,20.90
2019-02-21T12:44:04.052Z,21.20
2019-02-21T12:45:04.014Z,21.10
2019-02-21T12:46:04.063Z,21.60
2019-02-21T12:47:03.962Z,22.70
2019-02-21T12:48:03.946Z,21.60
2019-02-21T12:49:03.922Z,21.60
2019-02-21T12:50:04.001Z,21.80
2019-02-21T12:51:03.871Z,23.70
2019-02-21T12:52:03.936Z,22.30
2019-02-21T12:53:03.822Z,21.50
2019-02-21T12:54:03.812Z,22.20
2019-02-21T12:55:03.811Z,22.80
2019-02-21T12:56:03.788Z,23.10
2019-02-21T12:57:03.833Z,22.90
2019-02-21T12:58:03.704Z,22.90
2019-02-21T12:59:03.681Z,24.10
2019-02-21T13:00:03.662Z,23.60
2019-02-21T13:01:03.655Z,23.60
2019-02-21T13:02:03.612Z,23.60
2019-02-21T13:03:03.672Z,24.10
2019-02-21T13:04:03.561Z,23.80
2019-02-21T13:05:03.542Z,22.80
2019-02-21T13:06:03.587Z,23.70
2019-02-21T13:07:03.504Z,23.20
2019-02-21T13:08:03.496Z,22.20
2019-02-21T13:09:03.452Z,23.90
2019-02-21T13:10:03.433Z,22.40
2019-02-21T13:11:03.401Z,22.60
2019-02-21T13:12:03.412Z,23.00
2019-02-21T13:13:03.354Z,23.20
2019-02-21T13:14:03.423Z,23.50
2019-02-21T13:15:03.311Z,22.40
2019-02-21T13:16:03.280Z,22.00
2019-02-21T13:17:03.341Z,22.20
2019-02-21T13:18:03.246Z,22.30
2019-02-21T13:19:03.251Z,22.50
2019-02-21T13:20:03.196Z,21.90
2019-02-21T13:21:03.262Z,22.90
2019-02-21T13:22:03.152Z,21.90
2019-02-21T13:23:03.172Z,22.40
2019-02-21T13:24:03.117Z,22.00
2019-02-21T13:25:03.182Z,21.90
2019-02-21T13:26:03.053Z,22.70
2019-02-21T13:27:03.033Z,21.50
2019-02-21T13:28:03.012Z,20.00
2019-02-21T13:29:03.007Z,21.00
2019-02-21T13:30:02.973Z,21.10
2019-02-21T13:31:03.021Z,20.30
2019-02-21T13:32:02.933Z,21.00
2019-02-21T13:33:02.932Z,21.00
2019-02-21T13:34:02.872Z,20.50
2019-02-21T13:35:02.953Z,21.30
2019-02-21T13:36:02.821Z,20.80
2019-02-21T13:37:02.856Z,20.40
2019-02-21T13:38:02.863Z,20.20
2019-02-21T13:39:02.876Z,20.10
2019-02-21T13:40:02.763Z,19.50
2019-02-21T13:41:02.712Z,20.30
2019-02-21T13:42:02.791Z,19.60
2019-02-21T13:43:02.677Z,19.30
2019-02-21T13:44:02.705Z,19.40
2019-02-21T13:45:02.623Z,19.70
2019-02-21T13:46:02.759Z,18.70
2019-02-21T13:47:02.573Z,19.80
2019-02-21T13:48:02.636Z,19.60
2019-02-21T13:49:02.628Z,19.80
2019-02-21T13:50:02.503Z,19.20
2019-02-21T13:51:02.532Z,20.20
2019-02-21T13:52:02.445Z,19.50
2019-02-21T13:53:02.443Z,19.50
2019-02-21T13:54:02.450Z,19.50
2019-02-21T13:55:02.374Z,20.10
2019-02-21T13:56:02.475Z,19.50
2019-02-21T13:57:02.343Z,20.20
2019-02-21T13:58:02.372Z,19.40
2019-02-21T13:59:02.283Z,19.60
2019-02-21T14:00:02.273Z,19.40
2019-02-21T14:01:02.297Z,19.80
2019-02-21T14:02:02.215Z,19.60
2019-02-21T14:03:02.304Z,19.00
2019-02-21T14:04:02.163Z,19.30
2019-02-21T14:05:02.145Z,19.90
2019-02-21T14:06:03.873Z,19.60
2019-02-21T14:07:02.121Z,19.50
2019-02-21T14:08:02.076Z,18.90
2019-02-21T14:09:02.143Z,19.60
2019-02-21T14:10:02.024Z,18.70
2019-02-21T14:11:02.044Z,19.10
2019-02-21T14:12:01.973Z,19.70
2019-02-21T14:13:02.072Z,19.20
2019-02-21T14:14:01.937Z,19.00
2019-02-21T14:15:01.962Z,19.10
2019-02-21T14:16:01.883Z,19.20
2019-02-21T14:17:01.987Z,18.60
2019-02-21T14:18:01.841Z,18.40
2019-02-21T14:19:01.893Z,19.20
2019-02-21T14:20:01.794Z,18.40
2019-02-21T14:21:01.777Z,18.90
2019-02-21T14:22:01.752Z,18.10
2019-02-21T14:23:01.744Z,18.20
2019-02-21T14:24:01.708Z,17.80
2019-02-21T14:25:01.763Z,18.90
2019-02-21T14:26:01.652Z,18.00
2019-02-21T14:27:01.635Z,18.90
2019-02-21T14:28:01.682Z,17.90
2019-02-21T14:29:01.583Z,18.70
2019-02-21T14:30:01.592Z,18.00
2019-02-21T14:31:01.531Z,18.60
2019-02-21T14:32:01.512Z,17.90
2019-02-21T14:33:01.506Z,18.80
2019-02-21T14:34:01.516Z,18.80
2019-02-21T14:35:01.447Z,18.70
2019-02-21T14:36:01.533Z,19.10
2019-02-21T14:37:01.435Z,18.70
2019-02-21T14:38:01.444Z,19.00
2019-02-21T14:39:01.360Z,18.80
2019-02-21T14:40:01.357Z,19.00
2019-02-21T14:41:01.302Z,19.40
2019-02-21T14:42:01.374Z,19.40
2019-02-21T14:43:01.265Z,19.70
2019-02-21T14:44:01.288Z,19.00
2019-02-21T14:45:01.325Z,19.70
2019-02-21T14:46:01.293Z,19.90
2019-02-21T14:47:01.164Z,19.90
2019-02-21T14:48:01.141Z,19.80
2019-02-21T14:49:01.122Z,19.60
2019-02-21T14:50:01.127Z,19.70
2019-02-21T14:51:01.068Z,20.10
2019-02-21T14:52:01.995Z,20.60
2019-02-21T14:53:01.034Z,20.90
2019-02-21T14:54:00.994Z,19.70
2019-02-21T14:55:01.053Z,20.60
2019-02-21T14:56:00.951Z,20.20
2019-02-21T14:57:00.966Z,19.50
2019-02-21T14:58:00.981Z,20.60
2019-02-21T14:59:00.881Z,20.60
2019-02-21T15:00:00.852Z,20.30
2019-02-21T15:01:00.894Z,21.00
2019-02-21T15:02:00.810Z,21.10
2019-02-21T15:03:00.812Z,20.80
2019-02-21T15:04:00.773Z,21.70
2019-02-21T15:05:00.733Z,20.70
2019-02-21T15:06:00.823Z,21.20
2019-02-21T15:07:00.709Z,21.50
2019-02-21T15:08:00.730Z,21.60
2019-02-21T15:09:00.643Z,21.00
2019-02-21T15:10:00.633Z,22.00
2019-02-21T15:11:00.605Z,22.20
2019-02-21T15:12:00.661Z,21.20
2019-02-21T15:13:00.563Z,21.90
2019-02-21T15:14:00.584Z,21.10
2019-02-21T15:15:00.483Z,21.40
2019-02-21T15:16:00.592Z,21.30
2019-02-21T15:17:00.461Z,21.50
2019-02-21T15:18:07.362Z,20.90
2019-02-21T15:19:00.412Z,20.70
2019-02-21T15:20:00.503Z,21.70
2019-02-21T15:21:00.366Z,20.80
2019-02-21T15:22:00.420Z,20.80
2019-02-21T15:23:00.312Z,22.70
2019-02-21T15:24:00.335Z,21.30
2019-02-21T15:25:00.397Z,21.00
2019-02-21T15:26:00.251Z,20.60
2019-02-21T15:27:08.103Z,21.30
2019-02-21T15:28:00.191Z,21.00
2019-02-21T15:29:00.272Z,21.10
2019-02-21T15:30:00.392Z,21.40
2019-02-21T15:31:00.180Z,21.70
2019-02-21T15:32:10.260Z,21.50
2019-02-21T15:33:00.093Z,21.00
2019-02-21T15:34:00.103Z,21.40
2019-02-21T15:35:00.036Z,20.70
2019-02-21T15:36:00.112Z,20.80
2019-02-21T15:36:59.973Z,20.50
2019-02-21T15:38:00.632Z,20.40
2019-02-21T15:38:59.931Z,22.10
2019-02-21T15:39:59.938Z,21.40
2019-02-21T15:40:59.884Z,22.00
2019-02-21T15:41:59.952Z,21.60
2019-02-21T15:42:59.832Z,20.60
2019-02-21T15:43:59.862Z,20.70
2019-02-21T15:44:59.782Z,21.00
2019-02-21T15:45:59.874Z,21.50
2019-02-21T15:46:59.754Z,21.30
2019-02-21T15:47:59.757Z,20.80
2019-02-21T15:48:59.798Z,20.50
2019-02-21T15:49:59.673Z,21.40
2019-02-21T15:50:59.711Z,21.70
2019-02-21T15:51:59.614Z,21.30
2019-02-21T15:52:59.591Z,20.90
2019-02-21T15:53:59.571Z,21.70
2019-02-21T15:55:11.337Z,21.20
2019-02-21T15:55:59.537Z,21.60
2019-02-21T15:56:59.542Z,21.40
2019-02-21T15:58:03.998Z,21.70
2019-02-21T15:58:59.532Z,21.40
2019-02-21T15:59:59.464Z,21.40
2019-02-21T16:00:59.420Z,22.10
2019-02-21T16:01:59.480Z,21.10
2019-02-21T16:02:59.376Z,21.10
2019-02-21T16:03:59.342Z,21.70
2019-02-21T16:04:59.333Z,21.80
2019-02-21T16:05:59.301Z,21.40
2019-02-21T16:06:59.260Z,22.00
2019-02-21T16:07:59.315Z,21.90
2019-02-21T16:08:59.214Z,22.10
2019-02-21T16:09:59.190Z,22.00
2019-02-21T16:10:59.230Z,21.20
2019-02-21T16:11:59.133Z,22.40
2019-02-21T16:12:59.524Z,21.70
2019-02-21T16:14:02.963Z,22.70
2019-02-21T16:14:59.072Z,20.60
2019-02-21T16:15:59.170Z,21.10
2019-02-21T16:16:59.103Z,21.50
2019-02-21T16:17:59.083Z,21.70
2019-02-21T16:18:59.168Z,21.50
2019-02-21T16:19:58.945Z,22.80
2019-02-21T16:20:58.921Z,21.80
2019-02-21T16:21:59.031Z,22.00
2019-02-21T16:22:58.958Z,22.70
2019-02-21T16:23:58.915Z,22.20
2019-02-21T16:24:58.864Z,22.70
2019-02-21T16:25:58.803Z,22.30
2019-02-21T16:26:58.781Z,23.80
2019-02-21T16:27:58.844Z,24.10
2019-02-21T16:28:58.730Z,23.00
2019-02-21T16:29:58.753Z,22.70
2019-02-21T16:30:58.772Z,23.10
2019-02-21T16:31:58.653Z,23.70
2019-02-21T16:32:58.673Z,23.10
2019-02-21T16:33:58.622Z,23.40
2019-02-21T16:34:58.690Z,23.70
2019-02-21T16:35:58.561Z,23.00
2019-02-21T16:37:02.504Z,23.10
2019-02-21T16:37:58.600Z,23.50
2019-02-21T16:38:58.493Z,23.10
2019-02-21T16:40:00.814Z,23.20
2019-02-21T16:40:58.441Z,22.40
2019-02-21T16:41:58.427Z,23.20
2019-02-21T16:42:58.406Z,24.10
2019-02-21T16:43:58.393Z,23.70
2019-02-21T16:44:58.360Z,23.10
2019-02-21T16:46:07.481Z,23.80
2019-02-21T16:46:58.301Z,24.00
2019-02-21T16:47:58.284Z,24.20
2019-02-21T16:48:58.322Z,24.30
2019-02-21T16:49:58.421Z,24.40
2019-02-21T16:50:58.232Z,25.00
2019-02-21T16:51:58.180Z,25.70
2019-02-21T16:52:58.153Z,26.10
2019-02-21T16:55:29.941Z,26.10
2019-02-21T16:56:29.854Z,26.00
2019-02-21T16:58:33.922Z,26.80
2019-02-21T16:59:33.861Z,26.80
2019-02-21T17:01:37.965Z,25.90
2019-02-21T17:02:37.882Z,26.30
2019-02-21T17:04:41.922Z,26.50
2019-02-21T17:05:41.944Z,27.20
2019-02-21T17:07:45.972Z,27.00
2019-02-21T17:08:45.804Z,26.70
2019-02-21T17:10:38.740Z,26.40
2019-02-21T17:11:38.682Z,27.00
2019-02-21T17:13:42.762Z,27.30
2019-02-21T17:14:42.656Z,26.40
2019-02-21T17:16:46.764Z,27.20
2019-02-21T17:17:46.676Z,27.20
2019-02-21T17:19:50.779Z,26.40
2019-02-21T17:20:50.745Z,26.40
2019-02-21T17:22:54.805Z,26.40
2019-02-21T17:23:54.704Z,26.80
2019-02-21T17:25:58.815Z,27.20
2019-02-21T17:26:58.712Z,27.00
2019-02-21T17:29:02.812Z,26.20
2019-02-21T17:30:02.710Z,27.90
2019-02-21T17:32:06.661Z,29.30
2019-02-21T17:33:06.788Z,28.90
2019-02-21T17:35:10.833Z,28.30
2019-02-21T17:36:10.629Z,29.20
2019-02-21T17:38:14.851Z,28.00
2019-02-21T17:39:14.643Z,28.10
2019-02-21T17:41:18.873Z,28.00
2019-02-21T17:42:18.700Z,28.60
2019-02-21T17:44:22.873Z,29.40
2019-02-21T17:45:22.720Z,30.00
2019-02-21T17:47:34.772Z,29.70
2019-02-21T17:48:26.853Z,29.80
2019-02-21T17:50:19.842Z,29.00
2019-02-21T17:51:19.651Z,29.20
2019-02-21T17:53:23.654Z,30.10
2019-02-21T17:54:25.108Z,29.50
2019-02-21T17:56:28.482Z,29.40
2019-02-21T17:57:28.441Z,30.10
2019-02-21T17:59:32.445Z,29.60
2019-02-21T18:00:32.461Z,29.80
2019-02-21T18:02:36.523Z,29.30
2019-02-21T18:03:36.447Z,28.90
2019-02-21T18:05:40.524Z,30.90
2019-02-21T18:06:40.424Z,30.80
2019-02-21T18:08:44.441Z,32.50
2019-02-21T18:09:44.330Z,32.50
2019-02-21T18:11:48.336Z,32.20
2019-02-21T18:12:48.247Z,34.60
2019-02-21T18:14:52.251Z,35.20
2019-02-21T18:15:52.215Z,35.70
2019-02-21T18:17:56.212Z,34.80
2019-02-21T18:18:56.073Z,33.20
2019-02-21T18:21:00.084Z,32.70
2019-02-21T18:21:59.974Z,33.70
2019-02-21T18:24:04.081Z,33.00
2019-02-21T18:25:03.981Z,31.90
2019-02-21T18:27:08.039Z,31.70
2019-02-21T18:28:08.000Z,30.90
2019-02-21T18:30:00.957Z,31.50
2019-02-21T18:31:00.864Z,31.70
2019-02-21T18:33:04.891Z,31.00
2019-02-21T18:34:04.873Z,30.20
2019-02-21T18:36:08.970Z,31.80
2019-02-21T18:37:08.881Z,32.50
2019-02-21T18:39:12.979Z,31.90
2019-02-21T18:40:17.668Z,32.10
2019-02-21T18:42:16.988Z,31.70
2019-02-21T18:43:16.802Z,31.60
2019-02-21T18:45:20.802Z,30.90
2019-02-21T18:46:20.721Z,30.80
2019-02-21T18:48:24.817Z,31.80
2019-02-21T18:49:24.730Z,32.00
2019-02-21T18:51:28.724Z,31.20
2019-02-21T18:52:28.634Z,30.60
2019-02-21T18:54:32.585Z,30.90
2019-02-21T18:55:32.549Z,30.90
2019-02-21T18:57:36.538Z,30.60
2019-02-21T18:58:36.459Z,30.80
2019-02-21T19:00:29.393Z,32.00
2019-02-21T19:01:29.310Z,32.40
2019-02-21T19:03:33.398Z,32.50
2019-02-21T19:04:33.322Z,31.50
2019-02-21T19:06:37.420Z,31.10
2019-02-21T19:07:37.334Z,30.30
2019-02-21T19:09:41.330Z,30.90
2019-02-21T19:10:41.233Z,30.90
2019-02-21T19:12:45.344Z,31.10
2019-02-21T19:13:45.269Z,31.80
2019-02-21T19:15:49.351Z,31.80
2019-02-21T19:16:49.319Z,31.50
2019-02-21T19:18:53.269Z,31.80
2019-02-21T19:19:53.178Z,31.90
2019-02-21T19:21:57.272Z,32.00
2019-02-21T19:22:57.189Z,30.90
2019-02-21T19:25:01.197Z,32.00
2019-02-21T19:26:01.100Z,30.80
2019-02-21T19:28:05.159Z,32.00
2019-02-21T19:29:05.168Z,29.80
2019-02-21T19:31:09.050Z,30.60
2019-02-21T19:32:09.026Z,31.80
2019-02-21T19:34:13.069Z,31.90
2019-02-21T19:35:12.933Z,31.80
2019-02-21T19:37:16.930Z,32.00
2019-02-21T19:38:16.840Z,31.90
2019-02-21T19:40:09.792Z,31.60
2019-02-21T19:41:09.688Z,34.00
2019-02-21T19:43:14.608Z,33.50
2019-02-21T19:44:14.534Z,32.70
2019-02-21T19:46:18.530Z,33.80
2019-02-21T19:47:18.442Z,35.00
2019-02-21T19:49:22.525Z,34.10
2019-02-21T19:50:22.337Z,35.50
2019-02-21T19:52:26.340Z,36.70
2019-02-21T19:53:26.250Z,36.00
2019-02-21T19:55:30.248Z,34.30
2019-02-21T19:56:30.170Z,33.40
2019-02-21T19:58:34.258Z,33.40
2019-02-21T19:59:34.202Z,32.70
2019-02-21T20:01:38.281Z,31.70
2019-02-21T20:02:38.188Z,33.10
2019-02-21T20:04:42.189Z,31.70
2019-02-21T20:05:42.157Z,32.10
2019-02-21T20:07:46.088Z,31.10
2019-02-21T20:08:46.023Z,31.30
2019-02-21T20:10:38.946Z,31.10
2019-02-21T20:11:38.872Z,31.50
2019-02-21T20:13:42.992Z,30.90
2019-02-21T20:14:42.869Z,32.60
2019-02-21T20:16:46.897Z,31.00
2019-02-21T20:17:46.810Z,31.10
2019-02-21T20:19:50.881Z,31.10
2019-02-21T20:20:50.789Z,29.20
2019-02-21T20:22:54.903Z,29.80
2019-02-21T20:23:54.805Z,29.40
2019-02-21T20:25:58.816Z,29.40
2019-02-21T20:27:00.348Z,28.60
2019-02-21T20:29:03.183Z,28.60
2019-02-21T20:30:03.142Z,28.90
2019-02-21T20:32:07.252Z,29.10
2019-02-21T20:33:07.172Z,29.20
2019-02-21T20:35:11.268Z,28.20
2019-02-21T20:36:11.161Z,28.00
2019-02-21T20:38:15.164Z,27.00
2019-02-21T20:39:15.072Z,28.00
2019-02-21T20:41:19.176Z,26.50
2019-02-21T20:42:19.087Z,26.90
2019-02-21T20:44:23.092Z,27.00
2019-02-21T20:45:24.786Z,27.10
2019-02-21T20:47:27.110Z,25.70
2019-02-21T20:48:27.003Z,26.60
2019-02-21T20:50:19.958Z,26.10
2019-02-21T20:51:19.914Z,26.60
2019-02-21T20:53:23.849Z,25.80
2019-02-21T20:54:23.771Z,26.20
2019-02-21T20:56:27.712Z,26.00
2019-02-21T20:57:27.676Z,25.40
2019-02-21T20:59:31.670Z,26.20
2019-02-21T21:00:31.591Z,26.50
2019-02-21T21:02:35.633Z,26.40
2019-02-21T21:03:35.652Z,26.10
2019-02-21T21:05:39.601Z,27.20
2019-02-21T21:06:39.504Z,29.80
2019-02-21T21:08:46.589Z,29.10
2019-02-21T21:09:43.582Z,28.60
2019-02-21T21:11:47.634Z,28.10
2019-02-21T21:12:47.429Z,27.70
2019-02-21T21:14:51.531Z,27.70
2019-02-21T21:15:51.461Z,27.40
2019-02-21T21:17:55.549Z,26.80
2019-02-21T21:18:55.510Z,27.80
2019-02-21T21:20:59.451Z,27.50
2019-02-21T21:21:59.359Z,28.60
2019-02-21T21:24:03.371Z,27.80
2019-02-21T21:25:03.282Z,27.20
2019-02-21T21:27:07.278Z,28.70
2019-02-21T21:28:07.179Z,27.60
2019-02-21T21:30:00.284Z,28.10
2019-02-21T21:31:00.029Z,28.40
2019-02-21T21:33:04.082Z,28.80
2019-02-21T21:34:03.938Z,28.80
2019-02-21T21:36:08.048Z,28.30
2019-02-21T21:37:07.961Z,28.90
2019-02-21T21:39:12.013Z,28.40
2019-02-21T21:40:11.971Z,29.60
2019-02-21T21:42:15.971Z,30.30
2019-02-21T21:43:15.880Z,29.00
2019-02-21T21:45:19.931Z,29.70
2019-02-21T21:46:19.890Z,30.10
2019-02-21T21:47:19.872Z,30.50
2019-02-21T21:48:19.864Z,30.10
2019-02-21T21:49:19.820Z,28.50
2019-02-21T21:50:19.877Z,29.90
2019-02-21T21:51:19.758Z,30.10
2019-02-21T21:52:19.741Z,31.30
2019-02-21T21:53:19.710Z,30.60
2019-02-21T21:54:19.800Z,30.80
2019-02-21T21:55:19.660Z,31.60
2019-02-21T21:56:21.588Z,30.90
2019-02-21T21:57:19.610Z,32.30
2019-02-21T21:58:19.580Z,31.80
2019-02-21T21:59:19.621Z,31.40
2019-02-21T22:00:19.560Z,31.10
2019-02-21T22:01:19.543Z,31.20
2019-02-21T22:02:19.482Z,30.90
2019-02-21T22:03:19.461Z,31.10
2019-02-21T22:04:21.135Z,30.90
2019-02-21T22:05:19.472Z,32.00
2019-02-21T22:06:19.379Z,30.30
2019-02-21T22:07:19.469Z,30.60
2019-02-21T22:08:19.328Z,31.40
2019-02-21T22:09:19.379Z,31.70
2019-02-21T22:10:19.308Z,32.40
2019-02-21T22:11:19.303Z,31.60
2019-02-21T22:12:19.233Z,31.30
2019-02-21T22:13:19.302Z,32.30
2019-02-21T22:14:19.183Z,32.00
2019-02-21T22:15:19.220Z,32.80
2019-02-21T22:16:19.130Z,31.90
2019-02-21T22:17:19.119Z,32.40
2019-02-21T22:18:19.073Z,31.80
2019-02-21T22:19:19.143Z,31.40
2019-02-21T22:20:19.021Z,32.90
2019-02-21T22:21:19.042Z,32.90
2019-02-21T22:22:18.969Z,33.10
2019-02-21T22:23:19.062Z,32.70
2019-02-21T22:24:18.918Z,32.50
2019-02-21T22:25:18.975Z,33.50
2019-02-21T22:26:18.882Z,33.10
2019-02-21T22:27:18.880Z,31.10
2019-02-21T22:28:18.822Z,32.40
2019-02-21T22:29:18.890Z,33.00
2019-02-21T22:30:18.761Z,31.60
2019-02-21T22:31:18.752Z,33.00
2019-02-21T22:32:18.710Z,32.30
2019-02-21T22:33:18.710Z,32.60
2019-02-21T22:34:18.661Z,34.10
2019-02-21T22:35:18.720Z,33.10
2019-02-21T22:36:19.598Z,33.00
2019-02-21T22:37:18.592Z,33.10
2019-02-21T22:38:18.643Z,32.30
2019-02-21T22:39:18.541Z,34.30
2019-02-21T22:40:18.559Z,34.70
2019-02-21T22:41:18.485Z,33.30
2019-02-21T22:42:18.461Z,35.00
2019-02-21T22:43:18.452Z,33.70
2019-02-21T22:44:18.472Z,34.40
2019-02-21T22:45:18.395Z,33.50
2019-02-21T22:46:18.381Z,32.30
2019-02-21T22:47:18.331Z,32.60
2019-02-21T22:48:18.311Z,34.10
2019-02-21T22:49:18.280Z,34.50
2019-02-21T22:50:18.300Z,32.70
2019-02-21T22:51:18.240Z,33.80
2019-02-21T22:52:18.322Z,33.90
2019-02-21T22:53:18.203Z,34.00
2019-02-21T22:54:18.230Z,34.00
2019-02-21T22:55:25.492Z,34.30
2019-02-21T22:57:22.225Z,35.10
2019-02-21T22:58:22.132Z,36.20
2019-02-21T23:00:15.075Z,36.40
2019-02-21T23:01:14.996Z,36.10
2019-02-21T23:03:19.025Z,38.30
2019-02-21T23:04:19.011Z,37.60
2019-02-21T23:06:22.994Z,38.30
2019-02-21T23:07:22.902Z,39.80
2019-02-21T23:09:28.121Z,39.20
2019-02-21T23:10:26.976Z,38.90
2019-02-21T23:12:30.822Z,38.60
2019-02-21T23:13:30.743Z,39.20
2019-02-21T23:15:34.910Z,39.50
2019-02-21T23:16:34.732Z,39.40
2019-02-21T23:18:38.743Z,40.40
2019-02-21T23:19:38.642Z,38.50
2019-02-21T23:21:42.653Z,38.10
2019-02-21T23:22:42.553Z,36.80
2019-02-21T23:24:46.562Z,38.30
2019-02-21T23:25:46.462Z,39.00
2019-02-21T23:27:50.475Z,38.00
2019-02-21T23:28:50.372Z,38.90
2019-02-21T23:30:43.317Z,37.90
2019-02-21T23:31:43.224Z,37.50
2019-02-21T23:33:47.224Z,40.70
2019-02-21T23:34:47.132Z,39.90
2019-02-21T23:36:51.141Z,39.80
2019-02-21T23:37:51.050Z,39.10
2019-02-21T23:39:55.152Z,40.30
2019-02-21T23:40:55.061Z,40.00
2019-02-21T23:42:59.066Z,41.60
2019-02-21T23:43:58.971Z,42.40
2019-02-21T23:46:02.964Z,42.70
2019-02-21T23:47:02.894Z,43.70
2019-02-21T23:49:06.825Z,44.40
2019-02-21T23:50:06.783Z,42.60
2019-02-21T23:52:10.786Z,44.80
2019-02-21T23:53:10.691Z,43.20
2019-02-21T23:55:14.701Z,46.70
2019-02-21T23:56:14.605Z,48.10
2019-02-21T23:58:18.654Z,46.90
2019-02-21T23:59:18.724Z,48.00
